createdAt,value
2019-05-16T00:02:10.819Z,97473.13
2019-05-16T00:04:38.818Z,97470.53
2019-05-16T00:07:08.092Z,97435.81
2019-05-16T00:09:38.204Z,97461.28
2019-05-16T00:12:06.127Z,97457.48
2019-05-16T00:14:33.838Z,97458.45
2019-05-16T00:17:01.929Z,97442.33
2019-05-16T00:19:29.930Z,97457.28
2019-05-16T00:21:58.174Z,97452.44
2019-05-16T00:24:25.960Z,97447.54
2019-05-16T00:26:53.921Z,97440.00
2019-05-16T00:29:21.779Z,97442.41
2019-05-16T00:31:49.898Z,97437.52
2019-05-16T00:34:18.881Z,97440.28
2019-05-16T00:36:48.663Z,97432.63
2019-05-16T00:39:18.694Z,97431.58
2019-05-16T00:41:47.899Z,97428.32
2019-05-16T00:44:15.887Z,97424.67
2019-05-16T00:46:43.752Z,97422.03
2019-05-16T00:49:11.645Z,97420.97
2019-05-16T00:51:39.732Z,97425.17
2019-05-16T00:54:08.827Z,97415.97
2019-05-16T00:56:38.349Z,97421.25
2019-05-16T00:59:07.949Z,97420.66
2019-05-16T01:01:38.867Z,97425.17
2019-05-16T01:04:08.005Z,97417.09
2019-05-16T01:06:38.065Z,97421.91
2019-05-16T01:09:08.636Z,97413.33
2019-05-16T01:11:38.192Z,97402.26
2019-05-16T01:14:08.331Z,97398.30
2019-05-16T01:16:38.221Z,97394.26
2019-05-16T01:19:08.299Z,97376.33
2019-05-16T01:21:36.057Z,97391.19
2019-05-16T01:24:03.824Z,97396.47
2019-05-16T01:26:31.860Z,97392.20
2019-05-16T01:28:59.684Z,97391.70
2019-05-16T01:31:28.101Z,97394.11
2019-05-16T01:33:58.241Z,97390.42
2019-05-16T01:36:36.512Z,97389.22
2019-05-16T01:38:55.801Z,97388.98
2019-05-16T01:41:23.796Z,97387.92
2019-05-16T01:43:51.814Z,97392.47
2019-05-16T01:46:19.834Z,97385.16
2019-05-16T01:48:48.457Z,97384.11
2019-05-16T01:51:18.387Z,97389.48
2019-05-16T01:53:48.785Z,97384.38
2019-05-16T01:56:17.952Z,97386.28
2019-05-16T01:58:46.106Z,97385.90
2019-05-16T02:01:15.885Z,97383.45
2019-05-16T02:03:44.073Z,97377.39
2019-05-16T02:06:11.917Z,97371.31
2019-05-16T02:08:39.878Z,97379.95
2019-05-16T02:11:08.579Z,97374.23
2019-05-16T02:13:38.891Z,97373.73
2019-05-16T02:16:08.301Z,97378.47
2019-05-16T02:18:38.197Z,97370.11
2019-05-16T02:21:07.890Z,97364.91
2019-05-16T02:23:38.020Z,97365.86
2019-05-16T02:26:07.841Z,97366.69
2019-05-16T02:28:39.949Z,97367.30
2019-05-16T02:31:05.667Z,97353.05
2019-05-16T02:33:33.722Z,97368.95
2019-05-16T02:36:01.875Z,97356.10
2019-05-16T02:38:31.706Z,97357.47
2019-05-16T02:41:03.278Z,97359.38
2019-05-16T02:43:31.520Z,97362.39
2019-05-16T02:46:01.537Z,97358.73
2019-05-16T02:48:31.674Z,97357.69
2019-05-16T02:51:01.793Z,97356.34
2019-05-16T02:53:30.989Z,97352.08
2019-05-16T02:56:01.351Z,97355.84
2019-05-16T02:58:30.685Z,97359.62
2019-05-16T03:01:01.794Z,97356.59
2019-05-16T03:03:31.585Z,97354.80
2019-05-16T03:06:01.457Z,97356.67
2019-05-16T03:08:32.036Z,97363.75
2019-05-16T03:11:01.016Z,97354.34
2019-05-16T03:13:31.180Z,97356.67
2019-05-16T03:16:00.915Z,97356.13
2019-05-16T03:18:30.966Z,97354.64
2019-05-16T03:21:00.963Z,97351.53
2019-05-16T03:23:30.814Z,97350.84
2019-05-16T03:26:00.950Z,97351.28
2019-05-16T03:28:30.710Z,97351.51
2019-05-16T03:31:04.281Z,97356.05
2019-05-16T03:33:35.036Z,97356.48
2019-05-16T03:36:03.993Z,97356.95
2019-05-16T03:38:30.867Z,97355.36
2019-05-16T03:41:01.026Z,97358.38
2019-05-16T03:43:30.981Z,97359.13
2019-05-16T03:46:02.453Z,97358.98
2019-05-16T03:48:31.576Z,97361.13
2019-05-16T03:51:00.807Z,97355.84
2019-05-16T03:53:31.851Z,97355.49
2019-05-16T03:56:01.900Z,97352.39
2019-05-16T03:58:30.980Z,97352.57
2019-05-16T04:01:02.294Z,97359.83
2019-05-16T04:03:32.981Z,97351.57
2019-05-16T04:06:01.221Z,97356.27
2019-05-16T04:08:31.045Z,97364.50
2019-05-16T04:11:01.245Z,97361.47
2019-05-16T04:13:31.361Z,97369.63
2019-05-16T04:16:01.362Z,97368.85
2019-05-16T04:18:31.845Z,97368.95
2019-05-16T04:21:01.044Z,97367.16
2019-05-16T04:23:31.426Z,97372.36
2019-05-16T04:26:00.743Z,97367.09
2019-05-16T04:28:31.884Z,97369.56
2019-05-16T04:31:01.842Z,97370.30
2019-05-16T04:33:30.847Z,97373.25
2019-05-16T04:36:01.326Z,97375.69
2019-05-16T04:38:39.618Z,97373.44
2019-05-16T04:41:01.468Z,97372.71
2019-05-16T04:43:31.531Z,97370.92
2019-05-16T04:46:01.322Z,97368.38
2019-05-16T04:48:31.127Z,97365.91
2019-05-16T04:51:01.023Z,97360.73
2019-05-16T04:53:31.318Z,97363.09
2019-05-16T04:56:01.419Z,97364.12
2019-05-16T04:58:31.418Z,97367.35
2019-05-16T05:01:01.280Z,97365.56
2019-05-16T05:03:31.416Z,97367.26
2019-05-16T05:06:00.560Z,97373.56
2019-05-16T05:08:30.783Z,97375.91
2019-05-16T05:11:01.164Z,97366.84
2019-05-16T05:13:30.512Z,97363.33
2019-05-16T05:15:57.837Z,97368.44
2019-05-16T05:18:25.979Z,97359.38
2019-05-16T05:20:53.802Z,97368.59
2019-05-16T05:23:21.711Z,97373.53
2019-05-16T05:25:51.275Z,97376.53
2019-05-16T05:28:21.061Z,97370.84
2019-05-16T05:30:50.305Z,97380.03
2019-05-16T05:33:20.992Z,97384.76
2019-05-16T05:35:50.695Z,97382.11
2019-05-16T05:38:21.243Z,97385.42
2019-05-16T05:40:51.003Z,97391.13
2019-05-16T05:43:21.340Z,97394.73
2019-05-16T05:45:51.070Z,97392.78
2019-05-16T05:48:21.186Z,97392.62
2019-05-16T05:50:50.675Z,97395.39
2019-05-16T05:53:20.431Z,97396.94
2019-05-16T05:55:50.669Z,97398.45
2019-05-16T05:58:20.592Z,97399.03
2019-05-16T06:00:52.049Z,97403.13
2019-05-16T06:03:22.470Z,97404.58
2019-05-16T06:05:50.431Z,97406.59
2019-05-16T06:08:20.116Z,97415.50
2019-05-16T06:10:50.470Z,97413.58
2019-05-16T06:13:20.687Z,97422.47
2019-05-16T06:15:48.024Z,97415.25
2019-05-16T06:18:16.045Z,97421.09
2019-05-16T06:20:43.966Z,97410.58
2019-05-16T06:23:11.805Z,97418.09
2019-05-16T06:25:40.565Z,97413.41
2019-05-16T06:28:10.619Z,97420.90
2019-05-16T06:30:40.731Z,97400.38
2019-05-16T06:33:10.201Z,97419.19
2019-05-16T06:35:40.162Z,97421.66
2019-05-16T06:38:09.980Z,97418.63
2019-05-16T06:40:40.087Z,97415.56
2019-05-16T06:43:10.907Z,97424.77
2019-05-16T06:45:40.222Z,97421.27
2019-05-16T06:48:10.030Z,97425.11
2019-05-16T06:50:40.082Z,97424.36
2019-05-16T06:53:10.235Z,97425.87
2019-05-16T06:55:37.581Z,97419.63
2019-05-16T06:58:05.515Z,97424.52
2019-05-16T07:00:33.506Z,97431.53
2019-05-16T07:03:01.432Z,97431.87
2019-05-16T07:05:29.965Z,97430.61
2019-05-16T07:07:59.812Z,97431.37
2019-05-16T07:10:28.014Z,97420.62
2019-05-16T07:12:55.881Z,97425.38
2019-05-16T07:15:23.683Z,97419.69
2019-05-16T07:17:51.685Z,97412.49
2019-05-16T07:20:20.938Z,97413.52
2019-05-16T07:22:50.278Z,97414.16
2019-05-16T07:25:20.645Z,97423.02
2019-05-16T07:27:51.036Z,97415.14
2019-05-16T07:30:19.979Z,97415.02
2019-05-16T07:32:50.023Z,97426.05
2019-05-16T07:35:20.497Z,97417.23
2019-05-16T07:37:49.966Z,97415.39
2019-05-16T07:40:23.733Z,97418.05
2019-05-16T07:42:50.777Z,97414.06
2019-05-16T07:45:20.426Z,97412.95
2019-05-16T07:47:50.662Z,97415.65
2019-05-16T07:50:20.161Z,97413.59
2019-05-16T07:52:50.842Z,97413.52
2019-05-16T07:55:20.587Z,97411.72
2019-05-16T07:57:47.877Z,97405.89
2019-05-16T08:00:16.027Z,97383.50
2019-05-16T08:02:44.433Z,97415.28
2019-05-16T08:05:12.732Z,97408.34
2019-05-16T08:07:40.932Z,97406.55
2019-05-16T08:10:11.034Z,97404.61
2019-05-16T08:12:40.750Z,97396.80
2019-05-16T08:15:10.186Z,97399.41
2019-05-16T08:17:44.140Z,97398.09
2019-05-16T08:20:07.518Z,97393.05
2019-05-16T08:22:35.150Z,97389.95
2019-05-16T08:25:03.032Z,97383.05
2019-05-16T08:27:31.495Z,97387.61
2019-05-16T08:30:02.472Z,97377.88
2019-05-16T08:32:31.274Z,97377.69
2019-05-16T08:35:01.143Z,97382.45
2019-05-16T08:37:41.342Z,97378.55
2019-05-16T08:40:00.396Z,97372.05
2019-05-16T08:42:32.334Z,97376.20
2019-05-16T08:45:01.866Z,97359.91
2019-05-16T08:47:32.184Z,97355.55
2019-05-16T08:50:00.893Z,97356.14
2019-05-16T08:52:31.559Z,97351.09
2019-05-16T08:55:03.348Z,97340.59
2019-05-16T08:57:32.721Z,97352.80
2019-05-16T09:00:01.550Z,97344.95
2019-05-16T09:02:35.799Z,97335.40
2019-05-16T09:05:04.390Z,97341.06
2019-05-16T09:07:31.605Z,97338.81
2019-05-16T09:10:00.251Z,97339.59
2019-05-16T09:12:27.950Z,97333.92
2019-05-16T09:14:59.417Z,97325.95
2019-05-16T09:17:27.687Z,97322.05
2019-05-16T09:19:57.519Z,97324.41
2019-05-16T09:22:24.436Z,97326.30
2019-05-16T09:24:52.033Z,97327.09
2019-05-16T09:27:19.627Z,97330.64
2019-05-16T09:29:47.366Z,97324.00
2019-05-16T09:32:17.890Z,97322.11
2019-05-16T09:34:47.651Z,97316.72
2019-05-16T09:37:14.043Z,97316.06
2019-05-16T09:39:41.555Z,97301.28
2019-05-16T09:42:09.214Z,97301.88
2019-05-16T09:44:37.106Z,97305.22
2019-05-16T09:47:07.405Z,97301.16
2019-05-16T09:49:36.850Z,97308.79
2019-05-16T09:52:03.890Z,97307.94
2019-05-16T09:54:31.454Z,97302.50
2019-05-16T09:56:59.083Z,97290.75
2019-05-16T09:59:26.647Z,97300.30
2019-05-16T10:01:56.936Z,97295.34
2019-05-16T10:04:26.558Z,97289.53
2019-05-16T10:06:53.882Z,97290.72
2019-05-16T10:09:22.484Z,97283.68
2019-05-16T10:12:07.182Z,97275.89
2019-05-16T10:14:22.174Z,97281.19
2019-05-16T10:16:51.796Z,97281.09
2019-05-16T10:19:19.823Z,97277.12
2019-05-16T10:21:47.913Z,97281.89
2019-05-16T10:24:16.036Z,97276.52
2019-05-16T10:26:46.552Z,97277.28
2019-05-16T10:29:14.014Z,97284.67
2019-05-16T10:31:51.658Z,97273.25
2019-05-16T10:34:12.028Z,97275.60
2019-05-16T10:36:40.107Z,97286.04
2019-05-16T10:39:08.301Z,97280.64
2019-05-16T10:41:37.115Z,97280.84
2019-05-16T10:44:06.237Z,97283.95
2019-05-16T10:46:34.237Z,97281.81
2019-05-16T10:49:02.123Z,97285.06
2019-05-16T10:51:30.235Z,97286.83
2019-05-16T10:54:09.085Z,97281.43
2019-05-16T10:56:28.148Z,97287.33
2019-05-16T10:59:25.946Z,97278.38
2019-05-16T11:01:28.649Z,97273.53
2019-05-16T11:03:56.809Z,97265.27
2019-05-16T11:06:29.174Z,97271.20
2019-05-16T11:08:57.161Z,97273.83
2019-05-16T11:11:27.333Z,97270.84
2019-05-16T11:13:54.659Z,97272.89
2019-05-16T11:16:22.229Z,97264.17
2019-05-16T11:18:49.799Z,97265.42
2019-05-16T11:21:19.309Z,97262.88
2019-05-16T11:23:47.163Z,97262.44
2019-05-16T11:26:15.979Z,97263.30
2019-05-16T11:28:43.542Z,97264.97
2019-05-16T11:31:11.261Z,97261.48
2019-05-16T11:33:39.006Z,97261.59
2019-05-16T11:36:08.261Z,97259.70
2019-05-16T11:38:37.822Z,97250.03
2019-05-16T11:41:07.377Z,97243.77
2019-05-16T11:43:36.698Z,97233.11
2019-05-16T11:46:04.793Z,97243.94
2019-05-16T11:48:32.548Z,97253.13
2019-05-16T11:51:00.328Z,97250.47
2019-05-16T11:53:28.448Z,97249.20
2019-05-16T11:56:01.293Z,97244.56
2019-05-16T11:58:26.641Z,97247.43
2019-05-16T12:00:57.257Z,97250.33
2019-05-16T12:03:24.024Z,97236.75
2019-05-16T12:05:51.688Z,97250.89
2019-05-16T12:08:19.612Z,97242.37
2019-05-16T12:10:47.768Z,97242.84
2019-05-16T12:13:25.247Z,97245.33
2019-05-16T12:15:45.508Z,97250.86
2019-05-16T12:18:13.116Z,97245.98
2019-05-16T12:20:40.835Z,97260.23
2019-05-16T12:23:08.537Z,97247.86
2019-05-16T12:25:36.867Z,97243.20
2019-05-16T12:28:07.863Z,97242.48
2019-05-16T12:30:37.700Z,97245.85
2019-05-16T12:33:07.126Z,97243.38
2019-05-16T12:35:36.920Z,97245.70
2019-05-16T12:38:07.785Z,97251.59
2019-05-16T12:40:34.116Z,97242.79
2019-05-16T12:43:02.056Z,97244.94
2019-05-16T12:45:29.989Z,97244.80
2019-05-16T12:47:59.746Z,97243.77
2019-05-16T12:50:28.942Z,97238.86
2019-05-16T12:52:56.989Z,97243.59
2019-05-16T12:55:26.997Z,97245.80
2019-05-16T12:58:11.643Z,97233.22
2019-05-16T13:00:27.497Z,97243.17
2019-05-16T13:02:54.511Z,97236.00
2019-05-16T13:05:22.020Z,97237.97
2019-05-16T13:07:49.562Z,97244.11
2019-05-16T13:10:17.589Z,97238.25
2019-05-16T13:12:45.172Z,97239.81
2019-05-16T13:15:12.787Z,97236.95
2019-05-16T13:17:40.376Z,97240.80
2019-05-16T13:20:08.261Z,97241.36
2019-05-16T13:22:38.468Z,97237.30
2019-05-16T13:25:07.342Z,97241.50
2019-05-16T13:27:37.357Z,97238.84
2019-05-16T13:30:07.300Z,97240.02
2019-05-16T13:32:37.507Z,97236.86
2019-05-16T13:35:07.855Z,97247.78
2019-05-16T13:37:36.023Z,97238.47
2019-05-16T13:40:04.446Z,97240.80
2019-05-16T13:42:32.154Z,97240.39
2019-05-16T13:45:01.653Z,97239.58
2019-05-16T13:47:30.102Z,97235.84
2019-05-16T13:49:58.006Z,97239.25
2019-05-16T13:52:28.297Z,97237.83
2019-05-16T13:54:56.505Z,97242.95
2019-05-16T13:57:28.092Z,97233.30
2019-05-16T13:59:56.747Z,97231.65
2019-05-16T14:02:26.723Z,97233.27
2019-05-16T14:04:56.846Z,97233.95
2019-05-16T14:07:25.062Z,97241.19
2019-05-16T14:09:53.090Z,97242.83
2019-05-16T14:12:21.128Z,97235.55
2019-05-16T14:14:49.046Z,97228.16
2019-05-16T14:17:17.953Z,97232.31
2019-05-16T14:19:47.920Z,97233.64
2019-05-16T14:22:17.540Z,97236.67
2019-05-16T14:24:47.923Z,97237.25
2019-05-16T14:27:14.488Z,97234.13
2019-05-16T14:29:42.183Z,97237.88
2019-05-16T14:32:10.638Z,97240.06
2019-05-16T14:34:38.948Z,97242.00
2019-05-16T14:37:07.329Z,97237.69
2019-05-16T14:39:38.451Z,97243.50
2019-05-16T14:42:04.548Z,97245.11
2019-05-16T14:44:32.196Z,97242.00
2019-05-16T14:46:59.756Z,97247.81
2019-05-16T14:49:28.773Z,97249.42
2019-05-16T14:51:58.012Z,97258.83
2019-05-16T14:54:26.846Z,97249.41
2019-05-16T14:57:00.203Z,97255.22
2019-05-16T14:59:27.873Z,97257.03
2019-05-16T15:01:57.990Z,97263.47
2019-05-16T15:04:29.838Z,97264.30
2019-05-16T15:06:54.212Z,97261.86
2019-05-16T15:09:22.041Z,97264.52
2019-05-16T15:11:49.867Z,97267.08
2019-05-16T15:14:17.759Z,97270.93
2019-05-16T15:16:48.599Z,97271.89
2019-05-16T15:19:17.398Z,97270.75
2019-05-16T15:21:47.662Z,97267.23
2019-05-16T15:24:17.532Z,97273.63
2019-05-16T15:26:47.255Z,97248.67
2019-05-16T15:29:16.470Z,97244.79
2019-05-16T15:31:46.768Z,97274.80
2019-05-16T15:34:14.514Z,97277.23
2019-05-16T15:36:43.612Z,97276.11
2019-05-16T15:39:11.641Z,97276.88
2019-05-16T15:41:39.418Z,97279.89
2019-05-16T15:44:07.979Z,97279.04
2019-05-16T15:46:37.167Z,97282.78
2019-05-16T15:49:09.811Z,97276.48
2019-05-16T15:51:36.905Z,97272.23
2019-05-16T15:54:06.739Z,97262.06
2019-05-16T15:56:37.266Z,97279.36
2019-05-16T15:59:06.994Z,97271.64
2019-05-16T16:01:37.627Z,97271.77
2019-05-16T16:04:06.891Z,97273.23
2019-05-16T16:06:34.580Z,97270.70
2019-05-16T16:09:06.772Z,97268.77
2019-05-16T16:11:34.095Z,97268.13
2019-05-16T16:14:03.178Z,97241.97
2019-05-16T16:16:31.369Z,97266.06
2019-05-16T16:18:59.450Z,97267.02
2019-05-16T16:21:27.615Z,97269.34
2019-05-16T16:23:57.298Z,97270.41
2019-05-16T16:26:26.806Z,97264.62
2019-05-16T16:28:55.116Z,97259.42
2019-05-16T16:31:23.300Z,97263.88
2019-05-16T16:33:51.281Z,97262.55
2019-05-16T16:36:19.531Z,97262.08
2019-05-16T16:38:47.849Z,97263.75
2019-05-16T16:41:17.069Z,97270.67
2019-05-16T16:43:47.519Z,97267.96
2019-05-16T16:46:16.833Z,97266.05
2019-05-16T16:48:45.004Z,97264.34
2019-05-16T16:51:12.955Z,97269.66
2019-05-16T16:53:40.919Z,97268.18
2019-05-16T16:56:09.131Z,97263.48
2019-05-16T16:58:37.461Z,97269.97
2019-05-16T17:01:07.304Z,97272.16
2019-05-16T17:03:36.357Z,97274.34
2019-05-16T17:06:04.630Z,97276.30
2019-05-16T17:08:32.638Z,97276.56
2019-05-16T17:11:00.649Z,97281.63
2019-05-16T17:13:28.303Z,97277.28
2019-05-16T17:15:56.879Z,97280.66
2019-05-16T17:18:27.387Z,97281.64
2019-05-16T17:20:57.000Z,97278.98
2019-05-16T17:23:26.424Z,97280.20
2019-05-16T17:25:56.430Z,97286.63
2019-05-16T17:28:24.507Z,97280.14
2019-05-16T17:30:52.419Z,97286.78
2019-05-16T17:33:20.128Z,97291.99
2019-05-16T17:35:49.023Z,97290.56
2019-05-16T17:38:17.407Z,97276.25
2019-05-16T17:40:46.472Z,97295.20
2019-05-16T17:43:16.395Z,97289.04
2019-05-16T17:45:43.963Z,97299.76
2019-05-16T17:48:12.057Z,97295.66
2019-05-16T17:50:39.703Z,97294.66
2019-05-16T17:53:07.989Z,97291.02
2019-05-16T17:55:37.207Z,97306.67
2019-05-16T17:58:08.450Z,97299.92
2019-05-16T18:00:34.973Z,97301.09
2019-05-16T18:03:03.109Z,97287.18
2019-05-16T18:05:31.508Z,97305.45
2019-05-16T18:07:59.499Z,97302.66
2019-05-16T18:10:27.533Z,97297.16
2019-05-16T18:12:56.824Z,97300.88
2019-05-16T18:15:25.366Z,97300.51
2019-05-16T18:17:53.617Z,97303.33
2019-05-16T18:20:22.477Z,97302.58
2019-05-16T18:22:50.600Z,97307.69
2019-05-16T18:25:18.518Z,97308.38
2019-05-16T18:27:46.533Z,97301.25
2019-05-16T18:30:16.736Z,97309.22
2019-05-16T18:32:45.729Z,97308.85
2019-05-16T18:35:16.581Z,97305.30
2019-05-16T18:37:46.288Z,97311.00
2019-05-16T18:40:16.389Z,97316.16
2019-05-16T18:42:44.069Z,97296.63
2019-05-16T18:45:12.139Z,97312.25
2019-05-16T18:47:40.255Z,97315.27
2019-05-16T18:50:09.360Z,97321.23
2019-05-16T18:52:37.780Z,97318.44
2019-05-16T18:55:08.394Z,97320.20
2019-05-16T18:57:37.736Z,97318.87
2019-05-16T19:00:07.038Z,97321.18
2019-05-16T19:02:36.928Z,97326.02
2019-05-16T19:05:06.914Z,97328.02
2019-05-16T19:07:37.001Z,97330.91
2019-05-16T19:10:06.844Z,97333.80
2019-05-16T19:12:37.179Z,97335.26
2019-05-16T19:15:07.121Z,97330.98
2019-05-16T19:17:35.382Z,97325.00
2019-05-16T19:20:03.392Z,97337.78
2019-05-16T19:22:31.883Z,97338.38
2019-05-16T19:24:59.837Z,97336.06
2019-05-16T19:27:27.882Z,97343.28
2019-05-16T19:29:57.210Z,97339.98
2019-05-16T19:32:25.245Z,97338.10
2019-05-16T19:34:53.190Z,97346.05
2019-05-16T19:37:21.291Z,97347.95
2019-05-16T19:39:49.301Z,97344.64
2019-05-16T19:42:17.408Z,97338.58
2019-05-16T19:44:46.424Z,97340.15
2019-05-16T19:47:14.554Z,97339.78
2019-05-16T19:49:42.270Z,97341.69
2019-05-16T19:52:10.202Z,97350.00
2019-05-16T19:54:38.093Z,97343.94
2019-05-16T19:57:07.249Z,97344.49
2019-05-16T19:59:36.674Z,97344.66
2019-05-16T20:02:04.913Z,97346.78
2019-05-16T20:04:32.842Z,97350.39
2019-05-16T20:07:01.010Z,97343.81
2019-05-16T20:09:30.341Z,97342.08
2019-05-16T20:11:58.480Z,97342.59
2019-05-16T20:14:27.293Z,97346.05
2019-05-16T20:16:56.642Z,97342.34
2019-05-16T20:19:26.676Z,97340.41
2019-05-16T20:21:54.666Z,97341.25
2019-05-16T20:24:22.414Z,97339.03
2019-05-16T20:26:50.058Z,97341.99
2019-05-16T20:29:17.794Z,97337.39
2019-05-16T20:31:47.417Z,97338.34
2019-05-16T20:34:17.350Z,97340.95
2019-05-16T20:36:46.493Z,97343.33
2019-05-16T20:39:16.706Z,97346.36
2019-05-16T20:41:44.189Z,97340.25
2019-05-16T20:44:11.837Z,97338.88
2019-05-16T20:46:39.657Z,97344.28
2019-05-16T20:49:07.830Z,97342.48
2019-05-16T20:51:37.608Z,97343.33
2019-05-16T20:54:07.081Z,97342.05
2019-05-16T20:56:35.086Z,97343.91
2019-05-16T20:59:02.854Z,97348.59
2019-05-16T21:01:30.966Z,97342.63
2019-05-16T21:03:58.902Z,97346.66
2019-05-16T21:06:27.091Z,97343.68
2019-05-16T21:08:57.460Z,97338.48
2019-05-16T21:11:26.431Z,97349.27
2019-05-16T21:13:56.532Z,97341.30
2019-05-16T21:16:26.841Z,97337.09
2019-05-16T21:18:54.468Z,97339.22
2019-05-16T21:21:22.354Z,97337.08
2019-05-16T21:23:50.206Z,97334.81
2019-05-16T21:26:19.173Z,97327.45
2019-05-16T21:28:47.141Z,97331.25
2019-05-16T21:31:16.423Z,97330.49
2019-05-16T21:33:46.936Z,97333.66
2019-05-16T21:36:16.093Z,97329.77
2019-05-16T21:38:46.923Z,97325.95
2019-05-16T21:41:16.821Z,97329.07
2019-05-16T21:43:46.982Z,97328.64
2019-05-16T21:46:17.123Z,97329.42
2019-05-16T21:48:47.176Z,97324.98
2019-05-16T21:51:17.034Z,97324.54
2019-05-16T21:53:44.109Z,97327.53
2019-05-16T21:56:11.796Z,97330.94
2019-05-16T21:58:39.911Z,97322.99
2019-05-16T22:01:09.361Z,97320.84
2019-05-16T22:03:39.127Z,97322.55
2019-05-16T22:06:08.033Z,97320.91
2019-05-16T22:08:38.033Z,97320.72
2019-05-16T22:11:07.728Z,97323.02
2019-05-16T22:13:37.756Z,97317.82
2019-05-16T22:16:08.082Z,97319.05
2019-05-16T22:18:38.120Z,97317.82
2019-05-16T22:21:07.594Z,97317.25
2019-05-16T22:23:37.345Z,97317.98
2019-05-16T22:26:07.678Z,97311.07
2019-05-16T22:28:37.383Z,97308.39
2019-05-16T22:31:07.453Z,97305.27
2019-05-16T22:33:37.265Z,97312.05
2019-05-16T22:36:06.857Z,97310.25
2019-05-16T22:38:34.772Z,97305.42
2019-05-16T22:41:02.397Z,97300.91
2019-05-16T22:43:30.391Z,97308.67
2019-05-16T22:45:58.227Z,97305.33
2019-05-16T22:48:26.647Z,97301.86
2019-05-16T22:50:56.493Z,97302.05
2019-05-16T22:53:27.043Z,97304.13
2019-05-16T22:55:56.538Z,97301.33
2019-05-16T22:58:26.765Z,97299.24
2019-05-16T23:00:54.127Z,97302.65
2019-05-16T23:03:22.283Z,97305.77
2019-05-16T23:05:50.141Z,97300.00
2019-05-16T23:08:18.056Z,97297.54
2019-05-16T23:10:46.856Z,97289.22
2019-05-16T23:13:16.915Z,97292.63
2019-05-16T23:15:44.895Z,97291.55
2019-05-16T23:18:13.151Z,97285.49
2019-05-16T23:20:41.037Z,97279.91
2019-05-16T23:23:09.076Z,97280.63
2019-05-16T23:25:37.409Z,97278.77
2019-05-16T23:28:07.760Z,97280.29
2019-05-16T23:30:36.583Z,97283.03
2019-05-16T23:33:06.895Z,97285.44
2019-05-16T23:35:34.653Z,97279.87
2019-05-16T23:38:14.661Z,97276.41
2019-05-16T23:40:32.338Z,97274.55
2019-05-16T23:43:00.362Z,97272.98
2019-05-16T23:45:28.280Z,97270.61
2019-05-16T23:47:56.436Z,97269.20
2019-05-16T23:50:24.402Z,97264.28
2019-05-16T23:52:52.340Z,97261.91
2019-05-16T23:55:20.125Z,97260.05
2019-05-16T23:57:48.192Z,97263.70
